sensor_id;sensor_type;location;lat;lon;timestamp;temperature;humidity
64499;SHT31;51087;55.718;21.122;2023-04-01T00:00:55;4.80;99.99
64499;SHT31;51087;55.718;21.122;2023-04-01T00:03:22;4.79;99.99
64499;SHT31;51087;55.718;21.122;2023-04-01T00:05:47;4.77;99.99
64499;SHT31;51087;55.718;21.122;2023-04-01T00:08:14;4.77;99.99
64499;SHT31;51087;55.718;21.122;2023-04-01T00:10:39;4.80;99.99
64499;SHT31;51087;55.718;21.122;2023-04-01T00:13:05;4.79;99.99
64499;SHT31;51087;55.718;21.122;2023-04-01T00:15:31;4.81;99.99
64499;SHT31;51087;55.718;21.122;2023-04-01T00:17:56;4.79;99.99
64499;SHT31;51087;55.718;21.122;2023-04-01T00:20:22;4.80;99.99
64499;SHT31;51087;55.718;21.122;2023-04-01T00:22:47;4.84;99.99
64499;SHT31;51087;55.718;21.122;2023-04-01T00:25:13;4.84;99.99
64499;SHT31;51087;55.718;21.122;2023-04-01T00:27:40;4.90;99.99
64499;SHT31;51087;55.718;21.122;2023-04-01T00:30:05;4.83;99.99
64499;SHT31;51087;55.718;21.122;2023-04-01T00:32:31;4.87;99.99
64499;SHT31;51087;55.718;21.122;2023-04-01T00:34:57;4.90;99.99
64499;SHT31;51087;55.718;21.122;2023-04-01T00:37:25;4.94;99.99
64499;SHT31;51087;55.718;21.122;2023-04-01T00:39:51;4.96;99.99
64499;SHT31;51087;55.718;21.122;2023-04-01T00:42:16;4.97;99.99
64499;SHT31;51087;55.718;21.122;2023-04-01T00:44:42;4.97;99.99
64499;SHT31;51087;55.718;21.122;2023-04-01T00:47:07;5.01;99.99
64499;SHT31;51087;55.718;21.122;2023-04-01T00:49:38;5.07;99.99
64499;SHT31;51087;55.718;21.122;2023-04-01T00:52:07;5.07;99.99
64499;SHT31;51087;55.718;21.122;2023-04-01T00:54:34;5.15;99.99
64499;SHT31;51087;55.718;21.122;2023-04-01T00:57:05;5.17;99.99
64499;SHT31;51087;55.718;21.122;2023-04-01T00:59:38;5.21;99.99
64499;SHT31;51087;55.718;21.122;2023-04-01T01:02:07;5.25;99.99
64499;SHT31;51087;55.718;21.122;2023-04-01T01:04:34;5.30;99.99
64499;SHT31;51087;55.718;21.122;2023-04-01T01:13:04;5.39;99.99
64499;SHT31;51087;55.718;21.122;2023-04-01T01:18:39;5.38;99.99
64499;SHT31;51087;55.718;21.122;2023-04-01T01:24:08;5.32;99.99
64499;SHT31;51087;55.718;21.122;2023-04-01T01:37:32;5.11;99.99
64499;SHT31;51087;55.718;21.122;2023-04-01T01:40:06;5.18;99.99
64499;SHT31;51087;55.718;21.122;2023-04-01T01:42:34;5.11;99.99
64499;SHT31;51087;55.718;21.122;2023-04-01T01:45:01;5.03;99.99
64499;SHT31;51087;55.718;21.122;2023-04-01T01:47:28;4.91;99.99
64499;SHT31;51087;55.718;21.122;2023-04-01T01:49:55;4.88;99.99
64499;SHT31;51087;55.718;21.122;2023-04-01T01:52:24;4.86;99.99
64499;SHT31;51087;55.718;21.122;2023-04-01T01:54:54;4.83;99.99
64499;SHT31;51087;55.718;21.122;2023-04-01T01:57:24;4.79;99.99
64499;SHT31;51087;55.718;21.122;2023-04-01T01:59:53;4.80;99.99
64499;SHT31;51087;55.718;21.122;2023-04-01T02:02:21;4.81;99.99
64499;SHT31;51087;55.718;21.122;2023-04-01T02:04:48;4.77;99.99
64499;SHT31;51087;55.718;21.122;2023-04-01T02:07:19;4.80;99.99
64499;SHT31;51087;55.718;21.122;2023-04-01T02:09:47;4.73;99.99
64499;SHT31;51087;55.718;21.122;2023-04-01T02:12:14;4.75;99.99
64499;SHT31;51087;55.718;21.122;2023-04-01T02:14:58;4.70;99.99
64499;SHT31;51087;55.718;21.122;2023-04-01T02:17:27;4.66;99.99
64499;SHT31;51087;55.718;21.122;2023-04-01T02:20:15;4.65;99.99
64499;SHT31;51087;55.718;21.122;2023-04-01T02:22:47;4.67;99.99
64499;SHT31;51087;55.718;21.122;2023-04-01T02:25:17;4.65;99.99
64499;SHT31;51087;55.718;21.122;2023-04-01T02:27:44;4.59;99.99
64499;SHT31;51087;55.718;21.122;2023-04-01T02:30:12;4.53;99.99
64499;SHT31;51087;55.718;21.122;2023-04-01T02:32:39;4.60;99.99
64499;SHT31;51087;55.718;21.122;2023-04-01T02:35:07;4.53;99.99
64499;SHT31;51087;55.718;21.122;2023-04-01T02:37:33;4.53;99.99
64499;SHT31;51087;55.718;21.122;2023-04-01T02:40:00;4.48;99.99
64499;SHT31;51087;55.718;21.122;2023-04-01T02:42:26;4.45;99.99
64499;SHT31;51087;55.718;21.122;2023-04-01T02:44:51;4.45;99.99
64499;SHT31;51087;55.718;21.122;2023-04-01T02:47:16;4.39;99.99
64499;SHT31;51087;55.718;21.122;2023-04-01T02:49:42;4.39;99.99
64499;SHT31;51087;55.718;21.122;2023-04-01T02:52:07;4.41;99.99
64499;SHT31;51087;55.718;21.122;2023-04-01T02:54:33;4.39;99.99
64499;SHT31;51087;55.718;21.122;2023-04-01T02:56:58;4.29;99.99
64499;SHT31;51087;55.718;21.122;2023-04-01T02:59:23;4.34;99.99
64499;SHT31;51087;55.718;21.122;2023-04-01T03:01:49;4.35;99.99
64499;SHT31;51087;55.718;21.122;2023-04-01T03:04:14;4.34;99.99
64499;SHT31;51087;55.718;21.122;2023-04-01T03:06:40;4.29;99.99
64499;SHT31;51087;55.718;21.122;2023-04-01T03:09:05;4.34;99.99
64499;SHT31;51087;55.718;21.122;2023-04-01T03:11:30;4.21;99.99
64499;SHT31;51087;55.718;21.122;2023-04-01T03:13:56;4.25;99.99
64499;SHT31;51087;55.718;21.122;2023-04-01T03:16:23;4.25;99.99
64499;SHT31;51087;55.718;21.122;2023-04-01T03:18:48;4.21;99.99
64499;SHT31;51087;55.718;21.122;2023-04-01T03:21:21;4.20;99.99
64499;SHT31;51087;55.718;21.122;2023-04-01T03:23:47;4.21;99.99
64499;SHT31;51087;55.718;21.122;2023-04-01T03:26:12;4.15;99.99
64499;SHT31;51087;55.718;21.122;2023-04-01T03:28:39;4.17;99.99
64499;SHT31;51087;55.718;21.122;2023-04-01T03:31:04;4.08;99.99
64499;SHT31;51087;55.718;21.122;2023-04-01T03:33:30;4.03;99.99
64499;SHT31;51087;55.718;21.122;2023-04-01T03:35:56;4.01;99.99
64499;SHT31;51087;55.718;21.122;2023-04-01T03:38:21;3.98;99.99
64499;SHT31;51087;55.718;21.122;2023-04-01T03:40:47;4.01;99.99
64499;SHT31;51087;55.718;21.122;2023-04-01T03:43:12;3.93;99.99
64499;SHT31;51087;55.718;21.122;2023-04-01T03:45:45;3.97;99.99
64499;SHT31;51087;55.718;21.122;2023-04-01T03:48:11;3.93;99.99
64499;SHT31;51087;55.718;21.122;2023-04-01T03:50:36;3.87;99.99
64499;SHT31;51087;55.718;21.122;2023-04-01T03:53:02;3.87;99.99
64499;SHT31;51087;55.718;21.122;2023-04-01T03:55:27;3.89;99.99
64499;SHT31;51087;55.718;21.122;2023-04-01T03:57:52;3.87;99.99
64499;SHT31;51087;55.718;21.122;2023-04-01T04:00:18;3.91;99.99
64499;SHT31;51087;55.718;21.122;2023-04-01T04:02:44;3.86;99.99
64499;SHT31;51087;55.718;21.122;2023-04-01T04:05:10;3.82;99.99
64499;SHT31;51087;55.718;21.122;2023-04-01T04:07:36;3.82;99.99
64499;SHT31;51087;55.718;21.122;2023-04-01T04:10:01;3.84;99.99
64499;SHT31;51087;55.718;21.122;2023-04-01T04:12:27;3.77;99.99
64499;SHT31;51087;55.718;21.122;2023-04-01T04:14:52;3.83;99.99
64499;SHT31;51087;55.718;21.122;2023-04-01T04:17:17;3.82;99.99
64499;SHT31;51087;55.718;21.122;2023-04-01T04:19:43;3.77;99.99
64499;SHT31;51087;55.718;21.122;2023-04-01T04:22:09;3.79;99.99
64499;SHT31;51087;55.718;21.122;2023-04-01T04:24:35;3.79;99.99
64499;SHT31;51087;55.718;21.122;2023-04-01T04:27:00;3.79;99.99
64499;SHT31;51087;55.718;21.122;2023-04-01T04:29:26;3.73;99.99
64499;SHT31;51087;55.718;21.122;2023-04-01T04:31:51;3.82;99.99
64499;SHT31;51087;55.718;21.122;2023-04-01T04:34:17;3.79;99.99
64499;SHT31;51087;55.718;21.122;2023-04-01T04:36:44;3.74;99.99
64499;SHT31;51087;55.718;21.122;2023-04-01T04:39:09;3.70;99.99
64499;SHT31;51087;55.718;21.122;2023-04-01T04:41:37;3.69;99.99
64499;SHT31;51087;55.718;21.122;2023-04-01T04:44:03;3.70;99.99
64499;SHT31;51087;55.718;21.122;2023-04-01T04:46:29;3.72;99.99
64499;SHT31;51087;55.718;21.122;2023-04-01T04:48:54;3.72;99.99
64499;SHT31;51087;55.718;21.122;2023-04-01T04:51:20;3.69;99.99
64499;SHT31;51087;55.718;21.122;2023-04-01T04:53:46;3.67;99.99
64499;SHT31;51087;55.718;21.122;2023-04-01T04:56:12;3.64;99.99
64499;SHT31;51087;55.718;21.122;2023-04-01T04:58:38;3.60;99.99
64499;SHT31;51087;55.718;21.122;2023-04-01T05:01:14;3.53;99.99
64499;SHT31;51087;55.718;21.122;2023-04-01T05:03:40;3.52;99.99
64499;SHT31;51087;55.718;21.122;2023-04-01T05:06:07;3.51;99.99
64499;SHT31;51087;55.718;21.122;2023-04-01T05:08:33;3.51;99.99
64499;SHT31;51087;55.718;21.122;2023-04-01T05:10:59;3.56;99.99
64499;SHT31;51087;55.718;21.122;2023-04-01T05:13:25;3.49;99.99
64499;SHT31;51087;55.718;21.122;2023-04-01T05:15:50;3.51;99.99
64499;SHT31;51087;55.718;21.122;2023-04-01T05:18:16;3.48;99.99
64499;SHT31;51087;55.718;21.122;2023-04-01T05:20:53;3.56;99.99
64499;SHT31;51087;55.718;21.122;2023-04-01T05:23:19;3.53;99.99
64499;SHT31;51087;55.718;21.122;2023-04-01T05:25:47;3.39;99.99
64499;SHT31;51087;55.718;21.122;2023-04-01T05:28:12;3.43;99.99
64499;SHT31;51087;55.718;21.122;2023-04-01T05:30:42;3.46;99.99
64499;SHT31;51087;55.718;21.122;2023-04-01T05:33:09;3.42;99.99
64499;SHT31;51087;55.718;21.122;2023-04-01T05:35:35;3.38;99.99
64499;SHT31;51087;55.718;21.122;2023-04-01T05:38:01;3.45;99.99
64499;SHT31;51087;55.718;21.122;2023-04-01T05:40:27;3.38;99.99
64499;SHT31;51087;55.718;21.122;2023-04-01T05:42:53;3.38;99.99
64499;SHT31;51087;55.718;21.122;2023-04-01T05:45:18;3.38;99.99
64499;SHT31;51087;55.718;21.122;2023-04-01T05:47:44;3.38;99.99
64499;SHT31;51087;55.718;21.122;2023-04-01T05:50:10;3.32;99.99
64499;SHT31;51087;55.718;21.122;2023-04-01T05:52:36;3.32;99.99
64499;SHT31;51087;55.718;21.122;2023-04-01T05:55:02;3.34;99.99
64499;SHT31;51087;55.718;21.122;2023-04-01T05:57:28;3.38;99.99
64499;SHT31;51087;55.718;21.122;2023-04-01T05:59:53;3.39;99.99
64499;SHT31;51087;55.718;21.122;2023-04-01T06:02:19;3.36;99.99
64499;SHT31;51087;55.718;21.122;2023-04-01T06:04:45;3.32;99.99
64499;SHT31;51087;55.718;21.122;2023-04-01T06:07:14;3.34;99.99
64499;SHT31;51087;55.718;21.122;2023-04-01T06:09:41;3.35;99.99
64499;SHT31;51087;55.718;21.122;2023-04-01T06:17:29;3.36;99.99
64499;SHT31;51087;55.718;21.122;2023-04-01T06:26:06;3.28;99.99
64499;SHT31;51087;55.718;21.122;2023-04-01T06:43:08;3.12;99.99
64499;SHT31;51087;55.718;21.122;2023-04-01T06:45:44;3.12;99.99
64499;SHT31;51087;55.718;21.122;2023-04-01T06:48:31;3.12;99.99
64499;SHT31;51087;55.718;21.122;2023-04-01T06:53:56;3.15;99.99
64499;SHT31;51087;55.718;21.122;2023-04-01T06:56:26;3.18;99.99
64499;SHT31;51087;55.718;21.122;2023-04-01T07:01:22;3.14;99.99
64499;SHT31;51087;55.718;21.122;2023-04-01T07:03:58;3.18;99.99
64499;SHT31;51087;55.718;21.122;2023-04-01T07:06:43;3.18;99.99
64499;SHT31;51087;55.718;21.122;2023-04-01T07:09:14;3.18;99.99
64499;SHT31;51087;55.718;21.122;2023-04-01T07:11:41;3.19;99.99
64499;SHT31;51087;55.718;21.122;2023-04-01T07:17:01;3.26;99.99
64499;SHT31;51087;55.718;21.122;2023-04-01T07:19:45;3.17;99.99
64499;SHT31;51087;55.718;21.122;2023-04-01T07:25:38;3.07;99.99
64499;SHT31;51087;55.718;21.122;2023-04-01T07:28:12;3.17;99.99
64499;SHT31;51087;55.718;21.122;2023-04-01T07:31:03;3.12;99.99
64499;SHT31;51087;55.718;21.122;2023-04-01T07:36:29;3.08;99.99
64499;SHT31;51087;55.718;21.122;2023-04-01T08:01:03;3.01;99.99
64499;SHT31;51087;55.718;21.122;2023-04-01T08:06:40;3.03;99.99
64499;SHT31;51087;55.718;21.122;2023-04-01T08:18:13;3.36;99.99
64499;SHT31;51087;55.718;21.122;2023-04-01T08:20:55;3.52;99.99
64499;SHT31;51087;55.718;21.122;2023-04-01T08:23:26;3.58;99.99
64499;SHT31;51087;55.718;21.122;2023-04-01T08:28:41;3.93;99.78
64499;SHT31;51087;55.718;21.122;2023-04-01T08:31:13;4.08;99.66
64499;SHT31;51087;55.718;21.122;2023-04-01T08:33:44;3.95;97.98
64499;SHT31;51087;55.718;21.122;2023-04-01T08:36:19;4.08;99.07
64499;SHT31;51087;55.718;21.122;2023-04-01T08:55:20;3.79;98.15
64499;SHT31;51087;55.718;21.122;2023-04-01T09:00:38;3.58;98.68
64499;SHT31;51087;55.718;21.122;2023-04-01T09:14:34;3.89;98.24
64499;SHT31;51087;55.718;21.122;2023-04-01T09:28:28;4.31;97.09
64499;SHT31;51087;55.718;21.122;2023-04-01T09:34:06;4.29;96.99
64499;SHT31;51087;55.718;21.122;2023-04-01T09:36:47;4.44;96.24
64499;SHT31;51087;55.718;21.122;2023-04-01T09:39:21;4.72;96.13
64499;SHT31;51087;55.718;21.122;2023-04-01T09:42:04;4.98;95.90
64499;SHT31;51087;55.718;21.122;2023-04-01T09:44:46;5.00;95.68
64499;SHT31;51087;55.718;21.122;2023-04-01T09:47:39;4.96;93.93
64499;SHT31;51087;55.718;21.122;2023-04-01T10:00:53;5.34;94.43
64499;SHT31;51087;55.718;21.122;2023-04-01T10:09:39;5.20;93.64
64499;SHT31;51087;55.718;21.122;2023-04-01T10:23:31;4.96;92.83
64499;SHT31;51087;55.718;21.122;2023-04-01T10:45:50;4.86;92.55
64499;SHT31;51087;55.718;21.122;2023-04-01T10:56:44;5.14;93.52
64499;SHT31;51087;55.718;21.122;2023-04-01T11:26:48;4.90;92.22
64499;SHT31;51087;55.718;21.122;2023-04-01T11:29:38;4.81;91.44
64499;SHT31;51087;55.718;21.122;2023-04-01T11:32:28;4.72;90.54
64499;SHT31;51087;55.718;21.122;2023-04-01T11:43:08;4.77;91.08
64499;SHT31;51087;55.718;21.122;2023-04-01T11:45:57;4.66;91.70
64499;SHT31;51087;55.718;21.122;2023-04-01T11:54:21;4.52;92.57
64499;SHT31;51087;55.718;21.122;2023-04-01T12:02:58;4.35;92.76
64499;SHT31;51087;55.718;21.122;2023-04-01T12:05:43;4.27;91.51
64499;SHT31;51087;55.718;21.122;2023-04-01T12:11:09;4.18;91.88
64499;SHT31;51087;55.718;21.122;2023-04-01T12:19:01;4.03;91.76
64499;SHT31;51087;55.718;21.122;2023-04-01T12:21:49;4.07;92.32
64499;SHT31;51087;55.718;21.122;2023-04-01T12:27:20;4.21;91.92
64499;SHT31;51087;55.718;21.122;2023-04-01T12:41:14;3.98;91.22
64499;SHT31;51087;55.718;21.122;2023-04-01T12:55:18;4.05;91.18
64499;SHT31;51087;55.718;21.122;2023-04-01T13:00:24;4.04;90.72
64499;SHT31;51087;55.718;21.122;2023-04-01T13:08:28;3.95;90.80
64499;SHT31;51087;55.718;21.122;2023-04-01T13:11:09;3.94;90.89
64499;SHT31;51087;55.718;21.122;2023-04-01T13:13:54;3.77;92.26
64499;SHT31;51087;55.718;21.122;2023-04-01T13:19:06;3.70;92.41
64499;SHT31;51087;55.718;21.122;2023-04-01T13:21:51;3.84;92.28
64499;SHT31;51087;55.718;21.122;2023-04-01T13:29:32;3.69;94.17
64499;SHT31;51087;55.718;21.122;2023-04-01T13:37:28;3.45;95.22
64499;SHT31;51087;55.718;21.122;2023-04-01T13:43:04;3.29;95.70
64499;SHT31;51087;55.718;21.122;2023-04-01T13:54:14;3.05;97.22
64499;SHT31;51087;55.718;21.122;2023-04-01T14:02:31;3.00;98.15
64499;SHT31;51087;55.718;21.122;2023-04-01T14:05:32;2.96;98.49
64499;SHT31;51087;55.718;21.122;2023-04-01T14:13:33;3.05;99.39
64499;SHT31;51087;55.718;21.122;2023-04-01T14:18:46;3.11;97.76
64499;SHT31;51087;55.718;21.122;2023-04-01T14:24:45;3.08;98.44
64499;SHT31;51087;55.718;21.122;2023-04-01T14:27:36;3.03;97.45
64499;SHT31;51087;55.718;21.122;2023-04-01T14:33:26;2.94;97.34
64499;SHT31;51087;55.718;21.122;2023-04-01T14:38:47;2.94;97.84
64499;SHT31;51087;55.718;21.122;2023-04-01T14:49:53;3.03;98.42
64499;SHT31;51087;55.718;21.122;2023-04-01T14:52:31;3.07;98.18
64499;SHT31;51087;55.718;21.122;2023-04-01T14:55:00;3.09;98.18
64499;SHT31;51087;55.718;21.122;2023-04-01T14:57:31;3.14;97.91
64499;SHT31;51087;55.718;21.122;2023-04-01T15:00:22;3.17;97.79
64499;SHT31;51087;55.718;21.122;2023-04-01T15:03:12;3.15;97.74
64499;SHT31;51087;55.718;21.122;2023-04-01T15:05:55;3.12;97.81
64499;SHT31;51087;55.718;21.122;2023-04-01T15:08:32;3.12;98.02
64499;SHT31;51087;55.718;21.122;2023-04-01T15:11:32;3.04;97.86
64499;SHT31;51087;55.718;21.122;2023-04-01T15:36:05;2.91;98.20
64499;SHT31;51087;55.718;21.122;2023-04-01T15:38:46;2.90;98.71
64499;SHT31;51087;55.718;21.122;2023-04-01T15:41:45;2.93;99.29
64499;SHT31;51087;55.718;21.122;2023-04-01T15:44:44;2.93;98.08
64499;SHT31;51087;55.718;21.122;2023-04-01T15:49:57;2.87;97.58
64499;SHT31;51087;55.718;21.122;2023-04-01T15:52:55;2.84;97.64
64499;SHT31;51087;55.718;21.122;2023-04-01T15:55:36;2.80;97.72
64499;SHT31;51087;55.718;21.122;2023-04-01T16:00:30;2.79;96.92
64499;SHT31;51087;55.718;21.122;2023-04-01T16:11:38;2.63;98.26
64499;SHT31;51087;55.718;21.122;2023-04-01T16:22:31;2.52;97.99
64499;SHT31;51087;55.718;21.122;2023-04-01T16:25:32;2.50;97.71
64499;SHT31;51087;55.718;21.122;2023-04-01T16:34:14;2.39;97.74
64499;SHT31;51087;55.718;21.122;2023-04-01T16:36:48;2.41;97.40
64499;SHT31;51087;55.718;21.122;2023-04-01T16:47:38;2.28;96.28
64499;SHT31;51087;55.718;21.122;2023-04-01T16:50:22;2.24;96.20
64499;SHT31;51087;55.718;21.122;2023-04-01T16:58:18;2.18;97.26
64499;SHT31;51087;55.718;21.122;2023-04-01T17:01:00;2.17;96.64
64499;SHT31;51087;55.718;21.122;2023-04-01T17:03:40;2.17;96.82
64499;SHT31;51087;55.718;21.122;2023-04-01T17:06:31;2.14;96.31
64499;SHT31;51087;55.718;21.122;2023-04-01T17:15:02;2.17;95.91
64499;SHT31;51087;55.718;21.122;2023-04-01T17:20:07;2.08;96.21
64499;SHT31;51087;55.718;21.122;2023-04-01T17:27:51;2.04;96.28
64499;SHT31;51087;55.718;21.122;2023-04-01T17:30:22;2.04;95.93
64499;SHT31;51087;55.718;21.122;2023-04-01T17:35:58;2.08;96.18
64499;SHT31;51087;55.718;21.122;2023-04-01T17:41:26;2.05;96.44
64499;SHT31;51087;55.718;21.122;2023-04-01T17:50:17;2.07;95.93
64499;SHT31;51087;55.718;21.122;2023-04-01T17:57:52;2.00;94.64
64499;SHT31;51087;55.718;21.122;2023-04-01T18:00:39;2.04;94.95
64499;SHT31;51087;55.718;21.122;2023-04-01T18:06:21;2.01;95.16
64499;SHT31;51087;55.718;21.122;2023-04-01T18:11:44;1.98;95.55
64499;SHT31;51087;55.718;21.122;2023-04-01T18:22:47;1.95;93.99
64499;SHT31;51087;55.718;21.122;2023-04-01T18:25:35;1.94;94.37
64499;SHT31;51087;55.718;21.122;2023-04-01T18:30:52;1.94;94.07
64499;SHT31;51087;55.718;21.122;2023-04-01T18:33:21;1.93;94.54
64499;SHT31;51087;55.718;21.122;2023-04-01T18:35:57;1.95;93.56
64499;SHT31;51087;55.718;21.122;2023-04-01T18:51:55;1.97;93.79
64499;SHT31;51087;55.718;21.122;2023-04-01T18:54:32;1.98;93.68
64499;SHT31;51087;55.718;21.122;2023-04-01T18:57:04;1.97;93.39
64499;SHT31;51087;55.718;21.122;2023-04-01T19:05:34;2.07;92.48
64499;SHT31;51087;55.718;21.122;2023-04-01T19:11:21;2.07;92.68
64499;SHT31;51087;55.718;21.122;2023-04-01T19:16:50;2.04;92.65
64499;SHT31;51087;55.718;21.122;2023-04-01T19:24:55;2.14;91.71
64499;SHT31;51087;55.718;21.122;2023-04-01T19:38:36;2.20;91.24
64499;SHT31;51087;55.718;21.122;2023-04-01T19:44:02;2.26;91.22
64499;SHT31;51087;55.718;21.122;2023-04-01T19:46:44;2.25;90.85
64499;SHT31;51087;55.718;21.122;2023-04-01T20:01:08;2.20;91.07
64499;SHT31;51087;55.718;21.122;2023-04-01T20:06:06;2.26;89.83
64499;SHT31;51087;55.718;21.122;2023-04-01T20:16:16;2.24;90.02
64499;SHT31;51087;55.718;21.122;2023-04-01T20:24:17;2.26;90.66
64499;SHT31;51087;55.718;21.122;2023-04-01T20:33:17;2.28;89.97
64499;SHT31;51087;55.718;21.122;2023-04-01T20:35:52;2.38;89.49
64499;SHT31;51087;55.718;21.122;2023-04-01T20:38:32;2.35;89.62
64499;SHT31;51087;55.718;21.122;2023-04-01T20:41:05;2.31;89.78
64499;SHT31;51087;55.718;21.122;2023-04-01T20:49:45;2.35;89.66
64499;SHT31;51087;55.718;21.122;2023-04-01T20:52:01;2.32;90.52
64499;SHT31;51087;55.718;21.122;2023-04-01T21:00:27;2.32;90.21
64499;SHT31;51087;55.718;21.122;2023-04-01T21:08:17;2.36;90.03
64499;SHT31;51087;55.718;21.122;2023-04-01T21:16:41;2.26;89.79
64499;SHT31;51087;55.718;21.122;2023-04-01T21:41:49;2.10;90.59
64499;SHT31;51087;55.718;21.122;2023-04-01T21:50:00;2.04;90.83
64499;SHT31;51087;55.718;21.122;2023-04-01T21:55:50;2.03;91.24
64499;SHT31;51087;55.718;21.122;2023-04-01T22:04:56;1.94;90.57
64499;SHT31;51087;55.718;21.122;2023-04-01T22:07:40;1.91;90.59
64499;SHT31;51087;55.718;21.122;2023-04-01T22:11:11;1.90;90.86
64499;SHT31;51087;55.718;21.122;2023-04-01T22:13:50;1.87;89.60
64499;SHT31;51087;55.718;21.122;2023-04-01T22:19:10;1.87;89.65
64499;SHT31;51087;55.718;21.122;2023-04-01T22:29:38;1.86;88.98
64499;SHT31;51087;55.718;21.122;2023-04-01T22:32:11;1.84;89.12
64499;SHT31;51087;55.718;21.122;2023-04-01T22:34:47;1.84;88.91
64499;SHT31;51087;55.718;21.122;2023-04-01T22:48:06;1.45;89.39
64499;SHT31;51087;55.718;21.122;2023-04-01T22:55:50;1.35;89.58
64499;SHT31;51087;55.718;21.122;2023-04-01T22:58:21;1.28;89.40
64499;SHT31;51087;55.718;21.122;2023-04-01T23:00:56;1.19;89.26
64499;SHT31;51087;55.718;21.122;2023-04-01T23:03:31;1.14;89.03
64499;SHT31;51087;55.718;21.122;2023-04-01T23:05:59;1.09;89.12
64499;SHT31;51087;55.718;21.122;2023-04-01T23:11:02;0.97;89.36
64499;SHT31;51087;55.718;21.122;2023-04-01T23:13:34;0.97;89.20
64499;SHT31;51087;55.718;21.122;2023-04-01T23:16:02;0.94;89.40
64499;SHT31;51087;55.718;21.122;2023-04-01T23:21:39;1.08;88.16
64499;SHT31;51087;55.718;21.122;2023-04-01T23:24:21;1.15;87.92
64499;SHT31;51087;55.718;21.122;2023-04-01T23:29:39;1.22;87.17
64499;SHT31;51087;55.718;21.122;2023-04-01T23:32:18;1.17;87.23
64499;SHT31;51087;55.718;21.122;2023-04-01T23:34:52;1.15;87.24
64499;SHT31;51087;55.718;21.122;2023-04-01T23:37:19;1.00;87.11
64499;SHT31;51087;55.718;21.122;2023-04-01T23:39:47;0.83;87.97
64499;SHT31;51087;55.718;21.122;2023-04-01T23:44:50;0.69;88.42
64499;SHT31;51087;55.718;21.122;2023-04-01T23:47:30;0.62;88.28
64499;SHT31;51087;55.718;21.122;2023-04-01T23:49:59;0.64;88.52
64499;SHT31;51087;55.718;21.122;2023-04-01T23:52:40;0.70;88.01
64499;SHT31;51087;55.718;21.122;2023-04-01T23:55:14;0.81;87.70
64499;SHT31;51087;55.718;21.122;2023-04-01T23:57:39;0.90;87.54
